메인 페이지
METAR-TAF:

METAR-TAF

공항 :

키슬러 공군 기지

빌럭시, 미시시피, 미국

위도: 30-25N, 경도: 088-55W, 고도: 10m

현재 날씨관측

예보는 15분 전, 00:56시(UTC)에 발표되었습니다.
남남동6kt
온도 30°C
습도 70%
기압 1016 hPa
시정: 16.1km
고도 2500ft 상공 구름 조금

METAR: KBIX 210056Z AUTO 16006KT 10SM FEW025 30/24 A3000 RMK AO2 SLPNO T02950243

시각: 20:11 (01:11 UTC)

예보

예보는 7 시간 11분 전, 18:00시(UTC)에 발표되었습니다.
예보 대상 시간: 20일 18시부터 21일 24시까지 (UTC)
6kt
시정 10km 이상
고도 3000ft 상공 구름 보통
일시적
20일 20시부터 20일 24시까지 (UTC)
시정: 6000m
고도 3000ft 상공 구름 보통, 적란운.
약한소나기, 시계 내 뇌우
전환 중
21일 03시부터 21일 04시까지 (UTC)
6kt
시정 10km 이상
고도 1000ft 상공 구름 보통
전환 중
21일 07시부터 21일 08시까지 (UTC)
6kt
시정 10km 이상
고도 2000ft 상공 구름 보통

TAF: KBIX 201800Z 2018/2124 17006KT 9999 SCT030 QNH2990INS TEMPO 2020/2024 6000 -SHRA VCTS SCT030CB BECMG 2103/2104 17006KT 9999 SCT010 QNH2988INS BECMG 2107/2108 18006KT 9999 SCT020 QNH2993INS TX34/2019Z TN26/2112Z

4,000개 이상의 공항 관측 자료 및 예보 (METAR 및 TAF 보고).

지도상에서 검색 가능한 기상관측소가 노란 점과 빨간 점으로 표시되어 있습니다.

기상관측소 명을 보려면 표시 위로 마우스를 이동하세요.

날씨 관측과 예보를 보려면 클릭하세요.

지도 변경 : 확대하려면 엑스 표시가 있는 녹색 버튼, 축소하려면 빼기 표시가 있는 녹색 버튼, 다음 페이지의 지도를 보려면 녹색 화살표를 클릭하세요.


METAR-TAF: